Time;durP1;ratioP1;P1;durP2;ratioP2;P2;SDS_P1;SDS_P2;PMS_P1;PMS_P2;Temp;Humidity;BMP_temperature;BMP_pressure;BME280_temperature;BME280_humidity;BME280_pressure;Samples;Min_cycle;Max_cycle;Signal;HPM_P1;HPM_P2
2022/03/22 00:01:00;;;;;;;19.90;12.95;;;5.20;99.20;;;;;;5017145;28;20500;-75
2022/03/22 00:03:26;;;;;;;17.17;13.40;;;5.10;99.70;;;;;;5016901;28;20026;-75
2022/03/22 00:05:52;;;;;;;17.70;12.65;;;5.20;99.90;;;;;;5016575;28;20478;-75
2022/03/22 00:08:18;;;;;;;17.30;12.52;;;5.20;99.90;;;;;;5034618;28;20397;-75
2022/03/22 00:10:44;;;;;;;17.75;13.00;;;5.20;99.70;;;;;;5016917;28;20017;-75
2022/03/22 00:13:10;;;;;;;17.05;12.38;;;5.00;99.90;;;;;;5034425;28;20030;-75
2022/03/22 00:15:36;;;;;;;21.77;14.25;;;5.00;99.90;;;;;;5034251;28;20039;-73
2022/03/22 00:18:03;;;;;;;17.45;12.50;;;5.00;99.90;;;;;;5015693;28;20025;-75
2022/03/22 00:20:28;;;;;;;16.70;12.32;;;5.10;99.90;;;;;;5034362;28;20060;-76
2022/03/22 00:22:54;;;;;;;14.88;12.18;;;5.00;99.90;;;;;;5016423;28;20040;-75
2022/03/22 00:25:20;;;;;;;17.65;12.32;;;5.00;99.90;;;;;;5016248;28;20052;-74
2022/03/22 00:27:52;;;;;;;17.70;12.90;;;5.00;99.90;;;;;;5016480;28;20553;-74
2022/03/22 00:30:29;;;;;;;15.65;12.23;;;5.00;99.90;;;;;;5034287;28;20022;-75
2022/03/22 00:32:56;;;;;;;16.98;12.45;;;4.90;99.90;;;;;;5016322;28;20053;-76
2022/03/22 00:35:23;;;;;;;15.48;12.00;;;5.00;99.90;;;;;;5016639;28;20029;-76
2022/03/22 00:37:51;;;;;;;19.88;13.50;;;4.90;99.90;;;;;;5034251;28;20079;-75
2022/03/22 00:40:17;;;;;;;17.15;13.70;;;4.90;99.90;;;;;;5034185;28;20022;-75
2022/03/22 00:42:46;;;;;;;15.75;12.32;;;4.90;99.90;;;;;;5033682;28;20032;-75
2022/03/22 00:45:16;;;;;;;17.52;13.32;;;4.80;99.90;;;;;;5033683;28;20014;-76
2022/03/22 00:47:45;;;;;;;20.27;12.57;;;4.80;99.90;;;;;;5034037;28;20049;-76
2022/03/22 00:50:12;;;;;;;15.00;11.65;;;4.80;99.90;;;;;;5033730;28;20424;-76
2022/03/22 00:52:38;;;;;;;13.85;12.35;;;4.80;99.90;;;;;;5033502;28;20049;-75
2022/03/22 00:55:05;;;;;;;15.93;12.68;;;4.80;99.90;;;;;;5015953;28;20057;-75
2022/03/22 00:57:33;;;;;;;18.85;12.50;;;4.70;99.90;;;;;;5033486;28;20458;-75
2022/03/22 01:00:02;;;;;;;20.95;13.57;;;4.60;99.90;;;;;;5033476;28;20091;-76
2022/03/22 01:02:28;;;;;;;17.83;13.38;;;4.50;99.90;;;;;;5033306;28;20024;-76
2022/03/22 01:04:56;;;;;;;18.15;13.45;;;4.40;99.90;;;;;;5033366;28;20033;-75
2022/03/22 01:07:21;;;;;;;20.27;13.10;;;4.40;99.90;;;;;;5015475;28;20105;-75
2022/03/22 01:09:47;;;;;;;21.20;14.02;;;4.40;99.90;;;;;;5033363;28;20076;-76
2022/03/22 01:12:12;;;;;;;20.15;13.63;;;4.40;99.90;;;;;;5032925;28;20026;-75
2022/03/22 01:14:39;;;;;;;24.50;13.98;;;4.40;99.90;;;;;;5033190;28;20038;-75
2022/03/22 01:17:06;;;;;;;25.30;13.00;;;4.40;99.90;;;;;;5033189;28;20029;-75
2022/03/22 01:19:32;;;;;;;22.23;14.05;;;4.30;99.90;;;;;;5033376;28;20021;-76
2022/03/22 01:21:59;;;;;;;17.85;13.25;;;4.20;99.90;;;;;;5033069;28;20030;-76
2022/03/22 01:24:25;;;;;;;18.67;13.05;;;4.20;99.90;;;;;;5033071;28;20033;-76
2022/03/22 01:26:51;;;;;;;20.30;13.38;;;4.20;99.90;;;;;;5032817;28;20021;-76
2022/03/22 01:29:16;;;;;;;19.05;14.90;;;4.20;99.90;;;;;;5031843;28;20057;-75
2022/03/22 01:31:42;;;;;;;25.13;13.38;;;4.20;99.90;;;;;;5032754;28;20496;-76
2022/03/22 01:34:08;;;;;;;17.77;12.55;;;4.10;99.90;;;;;;5032808;28;20022;-75
2022/03/22 01:36:34;;;;;;;15.50;12.55;;;4.10;99.90;;;;;;5032907;28;20517;-76
2022/03/22 01:38:59;;;;;;;17.40;12.43;;;4.10;99.90;;;;;;5015160;28;20025;-75
2022/03/22 01:41:25;;;;;;;21.80;14.32;;;4.10;99.90;;;;;;5032715;28;20021;-75
2022/03/22 01:43:51;;;;;;;24.13;16.08;;;4.00;99.90;;;;;;5027279;28;20093;-73
2022/03/22 01:46:24;;;;;;;26.85;16.15;;;4.10;99.90;;;;;;5015714;28;20021;-75
2022/03/22 01:48:50;;;;;;;22.25;15.85;;;4.10;99.90;;;;;;5033028;28;20478;-75
2022/03/22 01:51:21;;;;;;;19.58;16.27;;;4.10;99.90;;;;;;5032446;28;20029;-76
2022/03/22 01:53:47;;;;;;;19.70;15.40;;;4.10;99.90;;;;;;5032478;28;20504;-76
2022/03/22 01:56:13;;;;;;;19.52;13.10;;;4.10;99.90;;;;;;5014673;28;20029;-74
2022/03/22 01:58:39;;;;;;;20.23;15.52;;;4.00;99.90;;;;;;5032532;28;20031;-76
2022/03/22 02:06:35;;;;;;;16.42;12.98;;;3.90;99.90;;;;;;5032395;28;20116;-75
2022/03/22 02:09:01;;;;;;;19.77;14.15;;;3.90;99.90;;;;;;5032384;28;20025;-76
2022/03/22 02:11:27;;;;;;;18.52;14.45;;;3.90;99.90;;;;;;5014344;28;20029;-75
2022/03/22 02:13:52;;;;;;;18.02;13.93;;;3.80;99.90;;;;;;5014371;28;20398;-75
2022/03/22 02:16:18;;;;;;;17.80;14.27;;;3.80;99.90;;;;;;5014434;28;20026;-74
2022/03/22 02:18:45;;;;;;;18.25;14.63;;;3.80;99.90;;;;;;5032147;28;20128;-75
2022/03/22 02:21:14;;;;;;;23.33;14.70;;;3.80;99.90;;;;;;5031819;28;20029;-75
2022/03/22 02:23:51;;;;;;;23.35;15.07;;;3.70;99.90;;;;;;5031983;28;20021;-75
2022/03/22 02:26:21;;;;;;;20.42;14.43;;;3.70;99.90;;;;;;5014418;28;20413;-75
2022/03/22 02:28:47;;;;;;;20.27;14.87;;;3.80;99.90;;;;;;5032202;28;20358;-74
2022/03/22 02:31:13;;;;;;;16.40;14.57;;;3.70;99.90;;;;;;5031989;28;20030;-76
2022/03/22 02:33:42;;;;;;;18.23;14.50;;;3.70;99.90;;;;;;5031895;28;20030;-75
2022/03/22 02:36:09;;;;;;;22.63;14.82;;;3.60;99.90;;;;;;5014330;28;20033;-75
2022/03/22 02:38:34;;;;;;;20.85;15.55;;;3.50;99.90;;;;;;5014159;28;20026;-75
2022/03/22 02:41:01;;;;;;;19.52;15.05;;;3.60;99.90;;;;;;5031364;28;20102;-75
2022/03/22 02:43:26;;;;;;;21.58;14.77;;;3.50;99.90;;;;;;5032746;28;20022;-75
2022/03/22 02:45:52;;;;;;;18.45;14.30;;;3.40;99.90;;;;;;5032284;28;20034;-75
2022/03/22 02:48:18;;;;;;;21.40;14.07;;;3.50;99.90;;;;;;5031914;28;20409;-74
2022/03/22 02:50:43;;;;;;;23.17;15.68;;;3.50;99.90;;;;;;5014151;28;20397;-75
2022/03/22 02:53:09;;;;;;;27.38;14.88;;;3.50;99.90;;;;;;5031726;28;20488;-75
2022/03/22 02:55:36;;;;;;;21.05;15.20;;;3.50;99.90;;;;;;5014374;28;20029;-74
2022/03/22 02:58:02;;;;;;;18.83;14.57;;;3.50;99.90;;;;;;5014209;28;20056;-75
2022/03/22 03:00:27;;;;;;;27.83;14.70;;;3.50;99.90;;;;;;5013800;28;20029;-74
2022/03/22 03:02:53;;;;;;;21.58;15.45;;;3.50;99.90;;;;;;5013889;28;20025;-75
2022/03/22 03:05:20;;;;;;;21.05;14.85;;;3.50;99.90;;;;;;5013890;28;20048;-75
2022/03/22 03:07:47;;;;;;;21.02;14.93;;;3.50;99.90;;;;;;5031984;28;20049;-75
2022/03/22 03:10:13;;;;;;;20.40;15.23;;;3.40;99.90;;;;;;5013915;28;20025;-75
2022/03/22 03:12:39;;;;;;;23.50;15.75;;;3.50;99.90;;;;;;5031511;28;20049;-75
2022/03/22 03:15:08;;;;;;;21.55;16.05;;;3.40;99.90;;;;;;5031679;28;20061;-75
2022/03/22 03:17:34;;;;;;;24.92;16.55;;;3.40;99.90;;;;;;5014098;28;20501;-77
2022/03/22 03:20:00;;;;;;;23.40;16.10;;;3.40;99.90;;;;;;5031770;28;20025;-75
2022/03/22 03:22:25;;;;;;;18.75;14.68;;;3.40;99.90;;;;;;5031588;28;20025;-74
2022/03/22 03:24:51;;;;;;;16.73;13.98;;;3.50;99.90;;;;;;5031779;28;20108;-75
2022/03/22 03:27:17;;;;;;;24.13;15.70;;;3.50;99.90;;;;;;5013647;28;20029;-76
2022/03/22 03:29:42;;;;;;;25.08;15.32;;;3.50;99.90;;;;;;5014139;28;20028;-75
2022/03/22 03:32:08;;;;;;;26.30;15.20;;;3.40;99.90;;;;;;5029123;28;20041;-75
2022/03/22 03:34:34;;;;;;;23.17;15.23;;;3.30;99.90;;;;;;5031811;28;20033;-74
2022/03/22 03:37:00;;;;;;;28.52;16.05;;;3.20;99.90;;;;;;5031562;28;20029;-76
2022/03/22 03:39:25;;;;;;;20.98;15.32;;;3.20;99.90;;;;;;5031636;28;20064;-75
2022/03/22 03:41:56;;;;;;;20.05;14.80;;;3.20;99.90;;;;;;5031292;28;20029;-75
2022/03/22 03:47:11;;;;;;;22.08;16.08;;;3.10;99.90;;;;;;5032050;28;20056;-75
2022/03/22 03:49:40;;;;;;;23.67;16.73;;;3.00;99.90;;;;;;5013805;28;20452;-75
2022/03/22 03:52:17;;;;;;;23.83;15.90;;;3.00;99.90;;;;;;5014249;28;20113;-74
2022/03/22 03:54:43;;;;;;;20.73;14.88;;;3.00;99.90;;;;;;5035018;28;20561;-75
2022/03/22 03:57:10;;;;;;;20.35;15.52;;;3.00;99.90;;;;;;5034707;28;20033;-75
2022/03/22 03:59:37;;;;;;;24.95;15.93;;;2.90;99.90;;;;;;5034902;28;20053;-75
2022/03/22 04:02:03;;;;;;;20.95;14.95;;;2.90;99.90;;;;;;5016435;28;20032;-75
2022/03/22 04:04:29;;;;;;;22.80;14.85;;;2.90;99.90;;;;;;5016637;28;20060;-74
2022/03/22 04:06:54;;;;;;;20.90;16.05;;;2.90;99.90;;;;;;5034872;28;20053;-76
2022/03/22 04:09:20;;;;;;;23.52;15.88;;;2.90;99.90;;;;;;5016738;28;20397;-74
2022/03/22 04:11:46;;;;;;;18.02;14.70;;;2.90;99.90;;;;;;5034316;28;20014;-75
2022/03/22 04:14:12;;;;;;;19.48;14.95;;;2.80;99.90;;;;;;5016533;28;20040;-75
2022/03/22 04:16:38;;;;;;;22.63;14.63;;;2.80;99.90;;;;;;5034533;28;20485;-75
2022/03/22 04:19:05;;;;;;;22.70;15.23;;;2.80;99.90;;;;;;5016565;28;20029;-75
2022/03/22 04:21:33;;;;;;;20.92;14.63;;;2.80;99.90;;;;;;5034145;28;20029;-74
2022/03/22 04:23:58;;;;;;;21.65;14.68;;;2.80;99.90;;;;;;5034124;28;20405;-75
2022/03/22 04:26:24;;;;;;;19.58;15.77;;;2.70;99.90;;;;;;5034042;28;20029;-76
2022/03/22 04:34:19;;;;;;;25.85;15.48;;;3.10;99.90;;;;;;5034302;28;20064;-75
2022/03/22 04:36:46;;;;;;;20.27;14.18;;;3.10;99.90;;;;;;5033814;28;20029;-75
2022/03/22 04:39:11;;;;;;;23.75;15.13;;;3.30;99.90;;;;;;5033802;28;20029;-75
2022/03/22 04:41:37;;;;;;;21.13;15.15;;;3.40;99.90;;;;;;5015860;28;20531;-74
2022/03/22 04:44:03;;;;;;;19.15;13.60;;;3.50;99.90;;;;;;5033939;28;20039;-74
2022/03/22 04:46:29;;;;;;;22.63;15.25;;;3.50;99.90;;;;;;5015933;28;20041;-76
2022/03/22 04:48:54;;;;;;;29.02;15.07;;;3.40;99.90;;;;;;5033727;28;20049;-75
2022/03/22 04:56:48;;;;;;;25.15;16.95;;;3.40;99.90;;;;;;5033570;28;20041;-74
2022/03/22 04:59:19;;;;;;;23.35;16.23;;;3.40;99.90;;;;;;5033389;28;20030;-75
2022/03/22 05:01:45;;;;;;;;;;;3.40;99.90;;;;;;5033744;28;20033;-75
2022/03/22 05:04:11;;;;;;;25.23;18.27;;;3.40;99.90;;;;;;5033118;28;20308;-74
2022/03/22 05:06:38;;;;;;;26.63;16.38;;;3.30;99.90;;;;;;5015284;28;20052;-74
2022/03/22 05:09:05;;;;;;;24.63;15.32;;;3.40;99.90;;;;;;5015580;28;20465;-75
2022/03/22 05:11:30;;;;;;;21.13;14.25;;;3.30;99.90;;;;;;5015376;28;20052;-74
2022/03/22 05:13:57;;;;;;;22.10;16.45;;;3.40;99.90;;;;;;5039459;28;20029;-75
2022/03/22 05:16:24;;;;;;;19.52;14.57;;;3.30;99.90;;;;;;5025475;28;20064;-75
2022/03/22 05:18:50;;;;;;;23.30;16.23;;;3.10;99.90;;;;;;5033123;28;20021;-75
2022/03/22 05:21:17;;;;;;;25.67;16.88;;;3.10;99.90;;;;;;5033378;28;20474;-75
2022/03/22 05:23:45;;;;;;;23.52;16.85;;;3.00;99.90;;;;;;5033197;28;20140;-75
2022/03/22 05:26:11;;;;;;;24.52;17.02;;;2.90;99.90;;;;;;5032988;28;20163;-76
2022/03/22 05:28:37;;;;;;;24.48;17.05;;;2.80;99.90;;;;;;5032735;28;20029;-76
2022/03/22 05:31:04;;;;;;;23.60;16.42;;;2.80;99.90;;;;;;5015079;28;20120;-75
2022/03/22 05:33:30;;;;;;;20.85;15.38;;;2.80;99.90;;;;;;5032778;28;20035;-75
2022/03/22 05:35:56;;;;;;;26.83;15.75;;;2.90;99.90;;;;;;5014966;28;20397;-75
2022/03/22 05:38:22;;;;;;;26.73;17.00;;;2.90;99.90;;;;;;5032680;28;20025;-75
2022/03/22 05:40:48;;;;;;;24.65;16.52;;;3.00;99.90;;;;;;5015031;28;20025;-74
2022/03/22 05:43:13;;;;;;;25.80;15.38;;;3.20;99.90;;;;;;5014838;28;20051;-75
2022/03/22 05:45:39;;;;;;;19.48;15.50;;;3.40;99.90;;;;;;5032676;28;20076;-75
2022/03/22 05:48:07;;;;;;;29.77;16.00;;;3.50;99.90;;;;;;5014877;28;20538;-75
2022/03/22 05:50:33;;;;;;;24.50;16.15;;;3.50;99.90;;;;;;5032573;28;20374;-75
2022/03/22 05:52:58;;;;;;;23.30;15.63;;;3.50;99.90;;;;;;5032277;28;20108;-76
2022/03/22 05:55:24;;;;;;;26.67;15.75;;;3.50;99.90;;;;;;5032268;28;20448;-75
2022/03/22 05:57:49;;;;;;;24.52;16.48;;;3.60;99.90;;;;;;5032420;28;20079;-75
2022/03/22 06:00:18;;;;;;;23.75;16.30;;;3.70;99.90;;;;;;5052378;28;20041;-75
2022/03/22 06:02:43;;;;;;;26.52;16.52;;;3.60;99.90;;;;;;5035095;28;20006;-74
2022/03/22 06:05:11;;;;;;;22.45;16.40;;;3.60;99.90;;;;;;5052540;28;20026;-75
2022/03/22 06:07:37;;;;;;;22.52;15.02;;;3.70;99.90;;;;;;5047458;28;20075;-75
2022/03/22 06:10:04;;;;;;;27.33;16.27;;;3.70;99.90;;;;;;5017715;28;20116;-76
2022/03/22 06:12:39;;;;;;;26.63;18.00;;;3.80;99.90;;;;;;5032467;28;20124;-77
2022/03/22 06:15:16;;;;;;;22.58;14.90;;;3.80;99.90;;;;;;5014347;28;20040;-75
2022/03/22 06:17:49;;;;;;;34.83;16.33;;;3.80;99.90;;;;;;5014709;28;20128;-76
2022/03/22 06:20:17;;;;;;;23.30;16.42;;;3.80;99.90;;;;;;5014834;28;20036;-74
2022/03/22 06:22:45;;;;;;;31.17;15.93;;;3.90;99.90;;;;;;5032380;28;20017;-76
2022/03/22 06:25:11;;;;;;;25.30;15.13;;;4.10;99.90;;;;;;5033289;28;20404;-75
2022/03/22 06:27:37;;;;;;;29.50;16.50;;;4.20;99.90;;;;;;5017635;28;20045;-77
2022/03/22 06:30:07;;;;;;;24.77;17.23;;;4.20;99.90;;;;;;5033455;28;20071;-75
2022/03/22 06:32:46;;;;;;;26.45;17.48;;;4.20;99.90;;;;;;5032811;28;20021;-75
2022/03/22 06:35:13;;;;;;;36.70;16.88;;;4.40;99.90;;;;;;5032381;28;20036;-75
2022/03/22 06:37:39;;;;;;;25.10;15.73;;;4.40;99.90;;;;;;5016225;28;20032;-76
2022/03/22 06:40:09;;;;;;;20.98;15.80;;;4.50;99.90;;;;;;5021875;28;20041;-76
2022/03/22 06:42:35;;;;;;;24.42;14.73;;;4.50;99.90;;;;;;5022136;28;20485;-76
2022/03/22 06:45:03;;;;;;;21.33;14.90;;;4.70;99.90;;;;;;5034988;28;20075;-75
2022/03/22 06:47:29;;;;;;;25.13;16.25;;;4.80;99.90;;;;;;5033181;28;20025;-76
2022/03/22 06:49:55;;;;;;;29.35;16.85;;;4.80;99.90;;;;;;5033422;28;20067;-76
2022/03/22 06:52:20;;;;;;;27.67;15.38;;;5.00;99.90;;;;;;5033427;28;20025;-76
2022/03/22 06:54:46;;;;;;;28.20;17.50;;;5.30;99.90;;;;;;5032254;28;20030;-75
2022/03/22 06:57:12;;;;;;;22.67;16.35;;;5.60;99.90;;;;;;5032944;28;20036;-75
2022/03/22 06:59:37;;;;;;;25.63;16.55;;;5.70;99.90;;;;;;5018901;28;20366;-76
2022/03/22 07:02:05;;;;;;;29.73;17.73;;;5.70;99.90;;;;;;5020055;28;20022;-76
2022/03/22 07:04:33;;;;;;;25.58;18.08;;;5.70;99.90;;;;;;5035272;28;20021;-76
2022/03/22 07:06:59;;;;;;;24.35;16.73;;;5.60;99.90;;;;;;5034749;28;20041;-76
2022/03/22 07:09:25;;;;;;;26.63;16.17;;;5.60;99.90;;;;;;5034616;28;20042;-76
2022/03/22 07:11:51;;;;;;;24.75;17.48;;;5.70;99.90;;;;;;5032086;28;20056;-76
2022/03/22 07:14:18;;;;;;;34.60;19.50;;;5.70;99.90;;;;;;5032813;28;20591;-76
2022/03/22 07:16:47;;;;;;;27.95;18.05;;;5.70;99.90;;;;;;5014992;28;20022;-77
2022/03/22 07:19:13;;;;;;;27.08;17.48;;;5.90;99.90;;;;;;5032228;28;20084;-75
2022/03/22 07:21:39;;;;;;;31.10;17.85;;;6.10;99.90;;;;;;5032203;28;20022;-75
2022/03/22 07:24:05;;;;;;;24.95;17.35;;;6.20;99.90;;;;;;5015039;28;20025;-76
2022/03/22 07:26:30;;;;;;;23.73;16.00;;;6.00;99.90;;;;;;5034846;28;20072;-77
2022/03/22 07:28:56;;;;;;;29.63;15.98;;;6.40;99.90;;;;;;5018893;28;20030;-75
2022/03/22 07:31:21;;;;;;;20.23;14.88;;;6.50;99.90;;;;;;5048610;28;20580;-77
2022/03/22 07:33:47;;;;;;;40.45;15.82;;;6.60;99.90;;;;;;5042496;28;20077;-75
2022/03/22 07:36:12;;;;;;;19.27;16.05;;;6.70;99.10;;;;;;5020853;28;20112;-75
2022/03/22 07:38:38;;;;;;;23.17;15.75;;;6.80;98.80;;;;;;5057564;28;20031;-74
2022/03/22 07:41:03;;;;;;;23.80;15.45;;;6.80;98.80;;;;;;5058997;28;20042;-74
2022/03/22 07:43:30;;;;;;;21.75;15.68;;;6.90;98.60;;;;;;5042442;28;20013;-74
2022/03/22 07:45:55;;;;;;;22.48;15.07;;;7.00;97.90;;;;;;5042618;28;20064;-74
2022/03/22 07:48:21;;;;;;;22.17;15.75;;;7.00;98.30;;;;;;5059984;28;20034;-75
2022/03/22 07:53:31;;;;;;;23.50;15.77;;;7.20;97.60;;;;;;5059714;28;20052;-74
2022/03/22 07:55:56;;;;;;;23.73;16.50;;;7.40;97.10;;;;;;5042184;28;20026;-75
2022/03/22 07:58:22;;;;;;;23.08;14.93;;;7.60;96.60;;;;;;5059435;28;20045;-75
2022/03/22 08:00:47;;;;;;;21.60;15.48;;;7.60;96.40;;;;;;5059954;28;20057;-74
2022/03/22 08:03:15;;;;;;;17.15;13.82;;;7.70;96.40;;;;;;5058931;28;20017;-74
2022/03/22 08:05:44;;;;;;;19.15;14.25;;;7.80;95.80;;;;;;5021756;28;20032;-75
2022/03/22 08:08:09;;;;;;;22.20;15.48;;;7.80;95.60;;;;;;5037356;28;20405;-76
2022/03/22 08:10:35;;;;;;;24.70;15.30;;;7.90;95.60;;;;;;5038022;28;20029;-77
2022/03/22 08:13:02;;;;;;;21.70;15.77;;;7.80;95.50;;;;;;5053605;28;20010;-76
2022/03/22 08:15:28;;;;;;;23.20;15.65;;;7.90;95.40;;;;;;5058428;28;20037;-74
2022/03/22 08:17:53;;;;;;;24.52;14.55;;;7.90;95.30;;;;;;5042049;28;20025;-73
2022/03/22 08:20:19;;;;;;;19.55;15.45;;;7.90;95.40;;;;;;5041749;28;20040;-75
2022/03/22 08:22:50;;;;;;;27.38;16.70;;;8.10;95.40;;;;;;5059082;28;20097;-74
2022/03/22 08:25:27;;;;;;;19.08;14.75;;;8.20;95.40;;;;;;5058273;28;20026;-75
2022/03/22 08:27:54;;;;;;;24.15;16.02;;;8.30;95.00;;;;;;5058334;28;20045;-74
2022/03/22 08:30:21;;;;;;;22.83;14.45;;;8.50;94.80;;;;;;5041811;28;20034;-73
2022/03/22 08:33:00;;;;;;;18.80;14.85;;;8.60;94.50;;;;;;5058305;28;20006;-75
2022/03/22 08:35:27;;;;;;;21.17;15.38;;;8.80;94.40;;;;;;5041081;28;20057;-74
2022/03/22 08:37:54;;;;;;;26.95;17.23;;;8.90;94.10;;;;;;5039685;28;20018;-75
2022/03/22 08:40:20;;;;;;;21.02;15.80;;;9.10;93.70;;;;;;5055312;28;20013;-74
2022/03/22 08:42:47;;;;;;;20.92;16.05;;;9.20;93.40;;;;;;5037150;28;20053;-74
2022/03/22 08:45:17;;;;;;;24.92;16.65;;;9.30;93.10;;;;;;5038458;28;20045;-75
2022/03/22 08:47:46;;;;;;;23.73;14.30;;;9.50;92.20;;;;;;5039009;28;20005;-74
2022/03/22 08:50:15;;;;;;;19.75;14.35;;;9.60;91.00;;;;;;5038802;28;20036;-75
2022/03/22 08:52:42;;;;;;;24.27;15.15;;;9.60;90.40;;;;;;5050845;28;20017;-74
2022/03/22 08:55:12;;;;;;;21.98;15.80;;;9.60;90.10;;;;;;5043812;28;20030;-76
2022/03/22 08:57:39;;;;;;;18.42;13.45;;;9.60;89.50;;;;;;5037977;28;20037;-76
2022/03/22 09:00:09;;;;;;;20.42;14.23;;;9.60;89.60;;;;;;5036337;28;20029;-75
2022/03/22 09:02:35;;;;;;;20.75;14.52;;;9.70;89.90;;;;;;5017329;28;20113;-76
2022/03/22 09:07:47;;;;;;;21.50;15.15;;;9.90;90.10;;;;;;5035270;28;20040;-77
2022/03/22 09:10:14;;;;;;;20.08;14.80;;;10.10;90.30;;;;;;5017552;28;20029;-74
2022/03/22 09:12:40;;;;;;;17.30;14.85;;;10.20;90.30;;;;;;5037568;28;20021;-75
2022/03/22 09:15:06;;;;;;;20.13;16.50;;;10.30;90.20;;;;;;5038417;28;20076;-77
2022/03/22 09:17:32;;;;;;;26.70;16.67;;;10.40;90.10;;;;;;5036837;28;20401;-75
2022/03/22 09:19:58;;;;;;;24.73;15.60;;;10.60;89.90;;;;;;5036937;28;20060;-75
2022/03/22 09:22:23;;;;;;;21.77;16.60;;;10.70;89.10;;;;;;5039399;28;20044;-74
2022/03/22 09:24:49;;;;;;;21.77;15.55;;;10.80;89.50;;;;;;5036318;28;20135;-75
2022/03/22 09:27:14;;;;;;;22.10;15.75;;;11.00;89.10;;;;;;5035118;28;20064;-75
2022/03/22 09:29:40;;;;;;;21.90;15.30;;;11.20;87.60;;;;;;5034396;28;20397;-75
2022/03/22 09:32:06;;;;;;;27.33;16.35;;;11.20;87.50;;;;;;5015777;28;20029;-75
2022/03/22 09:34:32;;;;;;;28.05;15.43;;;11.40;87.60;;;;;;5015805;28;20025;-75
2022/03/22 09:36:59;;;;;;;20.63;15.00;;;11.50;86.80;;;;;;5033757;28;20112;-76
2022/03/22 09:39:25;;;;;;;31.92;17.60;;;11.50;86.60;;;;;;5035149;28;20021;-76
2022/03/22 09:41:51;;;;;;;21.70;16.55;;;11.60;86.50;;;;;;5020624;28;20033;-75
2022/03/22 09:44:18;;;;;;;23.17;17.13;;;11.60;86.40;;;;;;5037955;28;20022;-74
2022/03/22 09:46:46;;;;;;;25.85;16.38;;;11.70;86.20;;;;;;5021077;28;20402;-75
2022/03/22 09:49:12;;;;;;;25.35;17.70;;;11.90;85.50;;;;;;5016494;28;20025;-75
2022/03/22 09:51:48;;;;;;;27.35;17.67;;;11.90;85.10;;;;;;5034901;28;20049;-75
2022/03/22 09:54:16;;;;;;;27.48;19.58;;;11.90;84.90;;;;;;5035088;28;20022;-76
2022/03/22 09:56:43;;;;;;;32.75;20.02;;;12.00;84.70;;;;;;5016912;28;20135;-75
2022/03/22 09:59:09;;;;;;;29.92;20.08;;;12.10;84.10;;;;;;5020656;28;20603;-75
2022/03/22 10:01:36;;;;;;;29.92;19.50;;;12.30;82.50;;;;;;5044785;28;20048;-75
2022/03/22 10:04:06;;;;;;;25.48;17.13;;;12.20;82.30;;;;;;5023360;28;20022;-77
2022/03/22 10:06:32;;;;;;;22.70;17.23;;;12.50;79.90;;;;;;5033337;28;20022;-76
2022/03/22 10:08:58;;;;;;;24.25;15.32;;;12.60;81.00;;;;;;5033233;28;20025;-74
2022/03/22 10:11:42;;;;;;;23.30;17.65;;;12.80;80.70;;;;;;5033414;28;20077;-76
2022/03/22 10:14:09;;;;;;;25.20;17.17;;;12.90;79.20;;;;;;5033189;28;20505;-76
2022/03/22 10:17:15;;;;;;;27.27;16.80;;;12.90;79.30;;;;;;5015853;28;20458;-77
2022/03/22 10:19:52;;;;;;;18.27;14.65;;;13.00;78.20;;;;;;5000056;28;20091;-76
2022/03/22 10:22:25;;;;;;;20.55;16.50;;;13.10;77.30;;;;;;5032596;28;20025;-77
2022/03/22 10:24:55;;;;;;;25.27;16.55;;;13.30;76.20;;;;;;5015278;28;20028;-76
2022/03/22 10:27:26;;;;;;;19.55;15.38;;;13.20;75.60;;;;;;5015811;28;20084;-76
2022/03/22 10:29:52;;;;;;;;;;;13.40;74.30;;;;;;5016065;28;20116;-76
2022/03/22 10:32:28;;;;;;;19.02;13.43;;;13.50;71.90;;;;;;5015222;28;19936;-76
2022/03/22 10:34:53;;;;;;;18.52;14.90;;;13.30;70.80;;;;;;5015696;28;20041;-76
2022/03/22 10:37:26;;;;;;;19.45;14.02;;;13.60;69.40;;;;;;5032526;28;20029;-76
2022/03/22 10:39:52;;;;;;;19.05;14.18;;;13.60;69.60;;;;;;5032923;28;20084;-75
2022/03/22 10:42:22;;;;;;;17.52;14.98;;;13.60;69.30;;;;;;5032957;28;20367;-75
2022/03/22 10:44:50;;;;;;;18.65;14.18;;;13.90;68.20;;;;;;5015483;28;20021;-75
2022/03/22 10:47:25;;;;;;;21.98;14.38;;;14.20;67.90;;;;;;5033162;28;20025;-76
2022/03/22 10:50:01;;;;;;;20.20;15.77;;;14.00;68.20;;;;;;5015765;28;20048;-75
2022/03/22 10:52:29;;;;;;;17.27;13.50;;;14.30;67.30;;;;;;5032137;28;20021;-76
2022/03/22 10:54:55;;;;;;;17.73;14.27;;;14.50;67.00;;;;;;5032941;28;20030;-75
2022/03/22 10:57:28;;;;;;;16.38;14.20;;;14.40;66.20;;;;;;5032887;28;20026;-76
2022/03/22 10:59:55;;;;;;;18.48;13.52;;;14.70;65.00;;;;;;5015662;28;20021;-76
2022/03/22 11:02:23;;;;;;;15.82;14.23;;;14.70;63.00;;;;;;5036276;28;20091;-76
2022/03/22 11:04:50;;;;;;;16.15;12.65;;;14.60;63.20;;;;;;5036566;28;20021;-75
2022/03/22 11:07:16;;;;;;;17.63;13.38;;;14.60;61.80;;;;;;5019366;28;20076;-76
2022/03/22 11:09:42;;;;;;;14.30;12.63;;;14.70;61.90;;;;;;5036428;28;20025;-76
2022/03/22 11:12:09;;;;;;;13.82;12.20;;;14.90;60.40;;;;;;5018887;28;20025;-76
2022/03/22 11:14:36;;;;;;;14.82;13.30;;;15.10;60.40;;;;;;5019155;28;20041;-76
2022/03/22 11:17:02;;;;;;;15.32;12.55;;;15.10;59.70;;;;;;5036309;28;20033;-75
2022/03/22 11:19:28;;;;;;;15.32;13.43;;;15.10;59.50;;;;;;5036234;28;20033;-75
2022/03/22 11:22:04;;;;;;;14.73;13.20;;;15.30;59.00;;;;;;5037639;28;20026;-75
2022/03/22 11:24:30;;;;;;;15.15;13.50;;;15.30;58.60;;;;;;5037271;28;20024;-75
2022/03/22 11:26:56;;;;;;;13.65;12.25;;;15.20;59.40;;;;;;5036610;28;20029;-76
2022/03/22 11:29:25;;;;;;;12.98;11.63;;;15.00;59.00;;;;;;5035790;28;20051;-74
2022/03/22 11:34:37;;;;;;;15.80;14.10;;;14.80;59.10;;;;;;5037840;28;20032;-77
2022/03/22 11:37:04;;;;;;;15.13;13.52;;;15.20;60.40;;;;;;5037986;28;20040;-76
2022/03/22 11:42:25;;;;;;;19.67;14.50;;;15.40;60.80;;;;;;5037433;28;20028;-76
2022/03/22 11:45:02;;;;;;;17.48;13.50;;;15.10;60.00;;;;;;5036201;28;20017;-77
2022/03/22 11:47:44;;;;;;;16.77;13.82;;;14.90;60.10;;;;;;5036761;28;20018;-76
2022/03/22 11:50:13;;;;;;;17.63;14.80;;;15.30;59.30;;;;;;5037973;28;20481;-76
2022/03/22 11:52:40;;;;;;;15.40;13.80;;;15.70;59.00;;;;;;5020801;28;20108;-76
2022/03/22 11:55:15;;;;;;;14.75;12.63;;;15.80;59.00;;;;;;5019704;28;20021;-74
2022/03/22 11:57:48;;;;;;;15.23;13.05;;;15.70;58.40;;;;;;5036995;28;20025;-75
2022/03/22 12:00:17;;;;;;;16.48;14.25;;;15.90;58.60;;;;;;5018883;28;20030;-76
2022/03/22 12:02:52;;;;;;;15.73;13.57;;;16.10;58.60;;;;;;5037630;28;20509;-76
2022/03/22 12:05:19;;;;;;;16.73;14.63;;;16.30;59.40;;;;;;5039641;28;20018;-76
2022/03/22 12:07:46;;;;;;;19.08;13.52;;;16.30;60.40;;;;;;5037863;28;20033;-76
2022/03/22 12:10:15;;;;;;;17.60;15.02;;;16.10;59.30;;;;;;5035441;28;20021;-76
2022/03/22 12:12:48;;;;;;;16.63;14.75;;;15.80;59.70;;;;;;5035067;28;20033;-75
2022/03/22 12:15:16;;;;;;;20.55;14.73;;;16.10;59.80;;;;;;5038134;28;20029;-76
2022/03/22 12:17:43;;;;;;;20.35;15.88;;;16.10;59.70;;;;;;5036336;28;20025;-76
2022/03/22 12:20:11;;;;;;;17.90;15.75;;;16.40;60.00;;;;;;5018544;28;20080;-75
2022/03/22 12:22:43;;;;;;;18.10;16.10;;;16.40;59.50;;;;;;5035800;28;20024;-75
2022/03/22 12:25:10;;;;;;;17.00;15.13;;;16.40;59.10;;;;;;5035557;28;20025;-77
2022/03/22 12:27:35;;;;;;;18.58;15.93;;;16.50;59.20;;;;;;5017306;28;20025;-77
2022/03/22 12:30:01;;;;;;;18.58;14.15;;;16.60;58.90;;;;;;5035269;28;20084;-74
2022/03/22 12:32:27;;;;;;;19.35;15.13;;;16.60;58.30;;;;;;5034602;28;20501;-77
2022/03/22 12:34:54;;;;;;;22.25;15.65;;;16.60;58.20;;;;;;5040983;28;20017;-74
2022/03/22 12:37:19;;;;;;;16.52;14.77;;;16.50;58.30;;;;;;5048649;28;20026;-75
2022/03/22 12:39:47;;;;;;;20.40;15.35;;;16.60;57.70;;;;;;5018134;28;20045;-74
2022/03/22 12:42:14;;;;;;;15.25;13.75;;;16.20;57.70;;;;;;5016946;28;20021;-75
2022/03/22 12:44:41;;;;;;;17.67;14.43;;;16.00;57.30;;;;;;5018311;28;20030;-76
2022/03/22 12:47:08;;;;;;;23.05;14.93;;;16.00;57.30;;;;;;5036980;28;20095;-76
2022/03/22 12:49:35;;;;;;;23.75;14.55;;;16.10;57.00;;;;;;5035490;28;20030;-75
2022/03/22 12:52:02;;;;;;;19.48;15.30;;;16.10;57.20;;;;;;5018924;28;20025;-75
2022/03/22 12:54:35;;;;;;;20.27;14.60;;;16.60;57.40;;;;;;5035763;28;20053;-75
2022/03/22 12:57:01;;;;;;;15.30;13.63;;;16.80;56.90;;;;;;5018380;28;20401;-76
2022/03/22 12:59:28;;;;;;;19.20;14.43;;;16.90;56.40;;;;;;5017288;28;20018;-76
2022/03/22 13:01:58;;;;;;;18.00;15.80;;;17.00;56.40;;;;;;5035926;28;20025;-76
2022/03/22 13:04:29;;;;;;;15.68;13.90;;;17.00;55.90;;;;;;5017140;28;20025;-76
2022/03/22 13:06:56;;;;;;;;;;;16.90;56.00;;;;;;5018406;28;20501;-76